sensor_id;sensor_type;location;lat;lon;timestamp;P1;durP1;ratioP1;P2;durP2;ratioP2
65567;SDS011;52211;50.154;8.682;2023-03-14T00:00:23;2.27;;;1.60;;
65567;SDS011;52211;50.154;8.682;2023-03-14T00:02:53;1.43;;;1.00;;
65567;SDS011;52211;50.154;8.682;2023-03-14T00:05:25;3.50;;;1.60;;
65567;SDS011;52211;50.154;8.682;2023-03-14T00:07:52;1.73;;;1.63;;
65567;SDS011;52211;50.154;8.682;2023-03-14T00:10:21;2.93;;;1.27;;
65567;SDS011;52211;50.154;8.682;2023-03-14T00:12:53;2.10;;;1.07;;
65567;SDS011;52211;50.154;8.682;2023-03-14T00:15:27;1.67;;;1.30;;
65567;SDS011;52211;50.154;8.682;2023-03-14T00:17:56;1.20;;;1.00;;
65567;SDS011;52211;50.154;8.682;2023-03-14T00:20:28;1.40;;;1.30;;
65567;SDS011;52211;50.154;8.682;2023-03-14T00:22:57;1.40;;;1.30;;
65567;SDS011;52211;50.154;8.682;2023-03-14T00:25:29;1.20;;;1.10;;
65567;SDS011;52211;50.154;8.682;2023-03-14T00:27:58;1.23;;;1.13;;
65567;SDS011;52211;50.154;8.682;2023-03-14T00:30:27;1.53;;;1.17;;
65567;SDS011;52211;50.154;8.682;2023-03-14T00:32:54;1.47;;;1.37;;
65567;SDS011;52211;50.154;8.682;2023-03-14T00:35:23;2.37;;;1.30;;
65567;SDS011;52211;50.154;8.682;2023-03-14T00:37:52;1.40;;;1.30;;
65567;SDS011;52211;50.154;8.682;2023-03-14T00:40:19;0.93;;;0.93;;
65567;SDS011;52211;50.154;8.682;2023-03-14T00:42:48;2.50;;;1.37;;
65567;SDS011;52211;50.154;8.682;2023-03-14T00:45:15;1.67;;;1.13;;
65567;SDS011;52211;50.154;8.682;2023-03-14T00:47:42;1.53;;;0.90;;
65567;SDS011;52211;50.154;8.682;2023-03-14T00:50:14;2.00;;;0.90;;
65567;SDS011;52211;50.154;8.682;2023-03-14T00:52:44;1.47;;;1.10;;
65567;SDS011;52211;50.154;8.682;2023-03-14T00:55:16;1.10;;;1.00;;
65567;SDS011;52211;50.154;8.682;2023-03-14T00:57:48;2.10;;;1.10;;
65567;SDS011;52211;50.154;8.682;2023-03-14T01:00:17;1.83;;;1.10;;
65567;SDS011;52211;50.154;8.682;2023-03-14T01:02:46;2.07;;;0.87;;
65567;SDS011;52211;50.154;8.682;2023-03-14T01:05:16;1.40;;;1.10;;
65567;SDS011;52211;50.154;8.682;2023-03-14T01:07:45;1.30;;;0.80;;
65567;SDS011;52211;50.154;8.682;2023-03-14T01:10:14;2.20;;;1.00;;
65567;SDS011;52211;50.154;8.682;2023-03-14T01:12:42;3.37;;;1.20;;
65567;SDS011;52211;50.154;8.682;2023-03-14T01:15:09;1.50;;;1.17;;
65567;SDS011;52211;50.154;8.682;2023-03-14T01:17:37;2.63;;;1.10;;
65567;SDS011;52211;50.154;8.682;2023-03-14T01:20:06;1.17;;;1.00;;
65567;SDS011;52211;50.154;8.682;2023-03-14T01:22:42;1.50;;;1.00;;
65567;SDS011;52211;50.154;8.682;2023-03-14T01:25:11;1.30;;;0.90;;
65567;SDS011;52211;50.154;8.682;2023-03-14T01:27:41;2.30;;;1.07;;
65567;SDS011;52211;50.154;8.682;2023-03-14T01:30:12;2.83;;;1.00;;
65567;SDS011;52211;50.154;8.682;2023-03-14T01:32:45;3.30;;;0.93;;
65567;SDS011;52211;50.154;8.682;2023-03-14T01:35:19;1.30;;;1.20;;
65567;SDS011;52211;50.154;8.682;2023-03-14T01:37:49;2.47;;;1.00;;
65567;SDS011;52211;50.154;8.682;2023-03-14T01:40:20;1.83;;;1.17;;
65567;SDS011;52211;50.154;8.682;2023-03-14T01:42:57;2.70;;;1.43;;
65567;SDS011;52211;50.154;8.682;2023-03-14T01:52:00;2.43;;;1.13;;
65567;SDS011;52211;50.154;8.682;2023-03-14T01:55:05;5.73;;;1.40;;
65567;SDS011;52211;50.154;8.682;2023-03-14T01:57:39;2.20;;;1.50;;
65567;SDS011;52211;50.154;8.682;2023-03-14T02:00:15;4.13;;;1.30;;
65567;SDS011;52211;50.154;8.682;2023-03-14T02:02:49;5.10;;;1.30;;
65567;SDS011;52211;50.154;8.682;2023-03-14T02:05:25;1.60;;;1.10;;
65567;SDS011;52211;50.154;8.682;2023-03-14T02:08:09;2.30;;;1.40;;
65567;SDS011;52211;50.154;8.682;2023-03-14T02:10:49;2.33;;;1.47;;
65567;SDS011;52211;50.154;8.682;2023-03-14T02:13:25;1.30;;;1.20;;
65567;SDS011;52211;50.154;8.682;2023-03-14T02:15:53;1.23;;;1.13;;
65567;SDS011;52211;50.154;8.682;2023-03-14T02:18:49;2.67;;;1.23;;
65567;SDS011;52211;50.154;8.682;2023-03-14T02:21:45;3.03;;;1.10;;
65567;SDS011;52211;50.154;8.682;2023-03-14T02:24:59;1.20;;;1.00;;
65567;SDS011;52211;50.154;8.682;2023-03-14T02:27:34;2.03;;;0.97;;
65567;SDS011;52211;50.154;8.682;2023-03-14T02:32:40;2.50;;;1.00;;
65567;SDS011;52211;50.154;8.682;2023-03-14T02:35:14;5.17;;;1.37;;
65567;SDS011;52211;50.154;8.682;2023-03-14T02:37:55;2.10;;;1.37;;
65567;SDS011;52211;50.154;8.682;2023-03-14T02:40:51;3.47;;;1.10;;
65567;SDS011;52211;50.154;8.682;2023-03-14T02:43:23;2.87;;;1.00;;
65567;SDS011;52211;50.154;8.682;2023-03-14T02:45:58;2.83;;;1.20;;
65567;SDS011;52211;50.154;8.682;2023-03-14T02:48:35;1.53;;;1.00;;
65567;SDS011;52211;50.154;8.682;2023-03-14T02:51:10;1.00;;;0.90;;
65567;SDS011;52211;50.154;8.682;2023-03-14T02:53:38;1.90;;;1.10;;
65567;SDS011;52211;50.154;8.682;2023-03-14T02:56:12;1.67;;;1.20;;
65567;SDS011;52211;50.154;8.682;2023-03-14T02:58:41;3.23;;;1.40;;
65567;SDS011;52211;50.154;8.682;2023-03-14T03:01:35;2.97;;;1.00;;
65567;SDS011;52211;50.154;8.682;2023-03-14T03:04:06;1.33;;;1.10;;
65567;SDS011;52211;50.154;8.682;2023-03-14T03:06:38;1.37;;;1.10;;
65567;SDS011;52211;50.154;8.682;2023-03-14T03:09:05;0.93;;;0.83;;
65567;SDS011;52211;50.154;8.682;2023-03-14T03:11:34;2.47;;;1.00;;
65567;SDS011;52211;50.154;8.682;2023-03-14T03:14:03;1.40;;;1.30;;
65567;SDS011;52211;50.154;8.682;2023-03-14T03:16:32;2.50;;;1.10;;
65567;SDS011;52211;50.154;8.682;2023-03-14T03:19:01;1.27;;;1.10;;
65567;SDS011;52211;50.154;8.682;2023-03-14T03:21:30;2.80;;;1.10;;
65567;SDS011;52211;50.154;8.682;2023-03-14T03:24:00;1.27;;;1.17;;
65567;SDS011;52211;50.154;8.682;2023-03-14T03:26:38;1.20;;;1.20;;
65567;SDS011;52211;50.154;8.682;2023-03-14T03:29:09;1.67;;;1.57;;
65567;SDS011;52211;50.154;8.682;2023-03-14T03:31:41;2.00;;;1.20;;
65567;SDS011;52211;50.154;8.682;2023-03-14T03:34:13;1.10;;;1.00;;
65567;SDS011;52211;50.154;8.682;2023-03-14T03:36:49;2.23;;;1.40;;
65567;SDS011;52211;50.154;8.682;2023-03-14T03:39:15;1.57;;;0.90;;
65567;SDS011;52211;50.154;8.682;2023-03-14T03:41:47;1.40;;;0.80;;
65567;SDS011;52211;50.154;8.682;2023-03-14T03:44:17;2.67;;;1.10;;
65567;SDS011;52211;50.154;8.682;2023-03-14T03:46:47;0.93;;;0.90;;
65567;SDS011;52211;50.154;8.682;2023-03-14T03:49:14;2.70;;;1.07;;
65567;SDS011;52211;50.154;8.682;2023-03-14T03:51:41;1.33;;;0.90;;
65567;SDS011;52211;50.154;8.682;2023-03-14T03:54:15;3.57;;;0.97;;
65567;SDS011;52211;50.154;8.682;2023-03-14T03:56:44;2.47;;;1.10;;
65567;SDS011;52211;50.154;8.682;2023-03-14T03:59:13;1.10;;;0.97;;
65567;SDS011;52211;50.154;8.682;2023-03-14T04:01:47;1.13;;;1.00;;
65567;SDS011;52211;50.154;8.682;2023-03-14T04:04:14;0.97;;;0.97;;
65567;SDS011;52211;50.154;8.682;2023-03-14T04:06:41;2.00;;;0.80;;
65567;SDS011;52211;50.154;8.682;2023-03-14T04:09:10;1.37;;;1.03;;
65567;SDS011;52211;50.154;8.682;2023-03-14T04:11:47;0.80;;;0.80;;
65567;SDS011;52211;50.154;8.682;2023-03-14T04:14:20;1.53;;;1.00;;
65567;SDS011;52211;50.154;8.682;2023-03-14T04:16:53;1.30;;;1.00;;
65567;SDS011;52211;50.154;8.682;2023-03-14T04:19:25;2.30;;;1.10;;
65567;SDS011;52211;50.154;8.682;2023-03-14T04:21:54;2.13;;;1.00;;
65567;SDS011;52211;50.154;8.682;2023-03-14T04:24:26;2.70;;;1.40;;
65567;SDS011;52211;50.154;8.682;2023-03-14T04:26:58;2.37;;;1.10;;
65567;SDS011;52211;50.154;8.682;2023-03-14T04:29:25;3.17;;;1.30;;
65567;SDS011;52211;50.154;8.682;2023-03-14T04:31:54;1.63;;;0.90;;
65567;SDS011;52211;50.154;8.682;2023-03-14T04:34:24;1.50;;;1.00;;
65567;SDS011;52211;50.154;8.682;2023-03-14T04:36:53;1.00;;;0.90;;
65567;SDS011;52211;50.154;8.682;2023-03-14T04:39:28;2.20;;;1.00;;
65567;SDS011;52211;50.154;8.682;2023-03-14T04:42:04;2.70;;;0.97;;
65567;SDS011;52211;50.154;8.682;2023-03-14T04:44:36;2.27;;;0.93;;
65567;SDS011;52211;50.154;8.682;2023-03-14T04:47:03;3.07;;;1.17;;
65567;SDS011;52211;50.154;8.682;2023-03-14T04:49:33;3.03;;;1.23;;
65567;SDS011;52211;50.154;8.682;2023-03-14T04:52:00;1.90;;;1.30;;
65567;SDS011;52211;50.154;8.682;2023-03-14T04:54:37;0.87;;;0.80;;
65567;SDS011;52211;50.154;8.682;2023-03-14T04:57:06;3.80;;;1.10;;
65567;SDS011;52211;50.154;8.682;2023-03-14T04:59:35;0.97;;;0.83;;
65567;SDS011;52211;50.154;8.682;2023-03-14T05:02:25;1.60;;;1.20;;
65567;SDS011;52211;50.154;8.682;2023-03-14T05:05:16;2.47;;;1.50;;
65567;SDS011;52211;50.154;8.682;2023-03-14T05:07:56;2.27;;;1.20;;
65567;SDS011;52211;50.154;8.682;2023-03-14T05:10:58;3.13;;;0.90;;
65567;SDS011;52211;50.154;8.682;2023-03-14T05:13:43;2.53;;;1.17;;
65567;SDS011;52211;50.154;8.682;2023-03-14T05:16:39;1.07;;;0.97;;
65567;SDS011;52211;50.154;8.682;2023-03-14T05:19:29;1.37;;;1.17;;
65567;SDS011;52211;50.154;8.682;2023-03-14T05:22:04;2.30;;;1.20;;
65567;SDS011;52211;50.154;8.682;2023-03-14T05:24:33;0.80;;;0.80;;
65567;SDS011;52211;50.154;8.682;2023-03-14T05:27:13;1.13;;;0.90;;
65567;SDS011;52211;50.154;8.682;2023-03-14T05:29:59;0.80;;;0.80;;
65567;SDS011;52211;50.154;8.682;2023-03-14T05:32:40;1.53;;;1.00;;
65567;SDS011;52211;50.154;8.682;2023-03-14T05:35:15;1.50;;;0.80;;
65567;SDS011;52211;50.154;8.682;2023-03-14T05:38:11;2.73;;;1.20;;
65567;SDS011;52211;50.154;8.682;2023-03-14T05:40:52;3.13;;;1.30;;
65567;SDS011;52211;50.154;8.682;2023-03-14T05:43:39;2.67;;;1.00;;
65567;SDS011;52211;50.154;8.682;2023-03-14T05:46:19;4.10;;;1.37;;
65567;SDS011;52211;50.154;8.682;2023-03-14T05:49:14;1.00;;;0.90;;
65567;SDS011;52211;50.154;8.682;2023-03-14T05:51:57;2.93;;;1.10;;
65567;SDS011;52211;50.154;8.682;2023-03-14T05:54:48;2.07;;;1.10;;
65567;SDS011;52211;50.154;8.682;2023-03-14T05:57:35;0.90;;;0.83;;
65567;SDS011;52211;50.154;8.682;2023-03-14T06:00:41;1.20;;;0.77;;
65567;SDS011;52211;50.154;8.682;2023-03-14T06:03:20;2.13;;;1.00;;
65567;SDS011;52211;50.154;8.682;2023-03-14T06:05:50;2.10;;;1.00;;
65567;SDS011;52211;50.154;8.682;2023-03-14T06:08:20;1.30;;;1.00;;
65567;SDS011;52211;50.154;8.682;2023-03-14T06:10:49;2.93;;;1.23;;
65567;SDS011;52211;50.154;8.682;2023-03-14T06:13:23;5.33;;;0.90;;
65567;SDS011;52211;50.154;8.682;2023-03-14T06:15:53;2.53;;;0.93;;
65567;SDS011;52211;50.154;8.682;2023-03-14T06:18:24;2.20;;;0.87;;
65567;SDS011;52211;50.154;8.682;2023-03-14T06:20:57;2.47;;;0.70;;
65567;SDS011;52211;50.154;8.682;2023-03-14T06:23:26;1.57;;;0.90;;
65567;SDS011;52211;50.154;8.682;2023-03-14T06:25:59;0.60;;;0.60;;
65567;SDS011;52211;50.154;8.682;2023-03-14T06:28:27;1.73;;;1.10;;
65567;SDS011;52211;50.154;8.682;2023-03-14T06:30:59;1.73;;;0.80;;
65567;SDS011;52211;50.154;8.682;2023-03-14T06:33:31;0.73;;;0.70;;
65567;SDS011;52211;50.154;8.682;2023-03-14T06:36:02;2.57;;;1.00;;
65567;SDS011;52211;50.154;8.682;2023-03-14T06:38:30;0.70;;;0.70;;
65567;SDS011;52211;50.154;8.682;2023-03-14T06:41:02;2.10;;;0.90;;
65567;SDS011;52211;50.154;8.682;2023-03-14T06:43:41;1.63;;;0.77;;
65567;SDS011;52211;50.154;8.682;2023-03-14T06:46:11;1.80;;;0.90;;
65567;SDS011;52211;50.154;8.682;2023-03-14T06:48:40;1.90;;;0.90;;
65567;SDS011;52211;50.154;8.682;2023-03-14T06:51:10;1.10;;;0.80;;
65567;SDS011;52211;50.154;8.682;2023-03-14T06:53:37;1.53;;;0.70;;
65567;SDS011;52211;50.154;8.682;2023-03-14T06:56:05;2.73;;;0.80;;
65567;SDS011;52211;50.154;8.682;2023-03-14T06:58:38;2.13;;;0.90;;
65567;SDS011;52211;50.154;8.682;2023-03-14T07:01:14;2.00;;;1.03;;
65567;SDS011;52211;50.154;8.682;2023-03-14T07:03:50;1.87;;;0.77;;
65567;SDS011;52211;50.154;8.682;2023-03-14T07:06:22;1.30;;;0.83;;
65567;SDS011;52211;50.154;8.682;2023-03-14T07:08:53;2.57;;;1.00;;
65567;SDS011;52211;50.154;8.682;2023-03-14T07:11:21;1.40;;;0.83;;
65567;SDS011;52211;50.154;8.682;2023-03-14T07:13:48;1.70;;;0.80;;
65567;SDS011;52211;50.154;8.682;2023-03-14T07:16:15;3.07;;;0.87;;
65567;SDS011;52211;50.154;8.682;2023-03-14T07:18:42;1.23;;;0.97;;
65567;SDS011;52211;50.154;8.682;2023-03-14T07:21:12;2.03;;;0.90;;
65567;SDS011;52211;50.154;8.682;2023-03-14T07:23:46;0.93;;;0.80;;
65567;SDS011;52211;50.154;8.682;2023-03-14T07:26:20;2.53;;;1.13;;
65567;SDS011;52211;50.154;8.682;2023-03-14T07:28:51;2.00;;;0.83;;
65567;SDS011;52211;50.154;8.682;2023-03-14T07:31:19;0.67;;;0.67;;
65567;SDS011;52211;50.154;8.682;2023-03-14T07:33:48;1.97;;;0.90;;
65567;SDS011;52211;50.154;8.682;2023-03-14T07:36:16;2.30;;;0.70;;
65567;SDS011;52211;50.154;8.682;2023-03-14T07:38:48;1.40;;;0.80;;
65567;SDS011;52211;50.154;8.682;2023-03-14T07:41:28;1.50;;;0.90;;
65567;SDS011;52211;50.154;8.682;2023-03-14T07:44:18;1.60;;;0.70;;
65567;SDS011;52211;50.154;8.682;2023-03-14T07:46:45;3.50;;;1.10;;
65567;SDS011;52211;50.154;8.682;2023-03-14T07:49:17;0.73;;;0.60;;
65567;SDS011;52211;50.154;8.682;2023-03-14T07:51:44;1.93;;;0.73;;
65567;SDS011;52211;50.154;8.682;2023-03-14T07:54:16;1.07;;;0.70;;
65567;SDS011;52211;50.154;8.682;2023-03-14T07:56:46;0.60;;;0.60;;
65567;SDS011;52211;50.154;8.682;2023-03-14T07:59:15;2.00;;;1.20;;
65567;SDS011;52211;50.154;8.682;2023-03-14T08:01:42;0.90;;;0.90;;
65567;SDS011;52211;50.154;8.682;2023-03-14T08:04:11;3.33;;;0.70;;
65567;SDS011;52211;50.154;8.682;2023-03-14T08:06:38;0.53;;;0.53;;
65567;SDS011;52211;50.154;8.682;2023-03-14T08:09:05;2.63;;;0.87;;
65567;SDS011;52211;50.154;8.682;2023-03-14T08:11:32;2.40;;;0.80;;
65567;SDS011;52211;50.154;8.682;2023-03-14T08:14:04;0.60;;;0.60;;
65567;SDS011;52211;50.154;8.682;2023-03-14T08:16:39;0.87;;;0.70;;
65567;SDS011;52211;50.154;8.682;2023-03-14T08:19:09;2.37;;;0.97;;
65567;SDS011;52211;50.154;8.682;2023-03-14T08:21:36;1.33;;;0.50;;
65567;SDS011;52211;50.154;8.682;2023-03-14T08:24:08;1.33;;;0.80;;
65567;SDS011;52211;50.154;8.682;2023-03-14T08:26:35;5.53;;;0.90;;
65567;SDS011;52211;50.154;8.682;2023-03-14T08:29:05;0.93;;;0.90;;
65567;SDS011;52211;50.154;8.682;2023-03-14T08:31:34;1.57;;;0.60;;
65567;SDS011;52211;50.154;8.682;2023-03-14T08:34:06;3.13;;;0.70;;
65567;SDS011;52211;50.154;8.682;2023-03-14T08:36:38;1.97;;;1.20;;
65567;SDS011;52211;50.154;8.682;2023-03-14T08:39:05;2.40;;;0.80;;
65567;SDS011;52211;50.154;8.682;2023-03-14T08:41:38;0.87;;;0.73;;
65567;SDS011;52211;50.154;8.682;2023-03-14T08:44:11;2.30;;;0.77;;
65567;SDS011;52211;50.154;8.682;2023-03-14T08:46:46;0.80;;;0.80;;
65567;SDS011;52211;50.154;8.682;2023-03-14T08:49:13;1.00;;;0.90;;
65567;SDS011;52211;50.154;8.682;2023-03-14T08:51:46;1.80;;;0.70;;
65567;SDS011;52211;50.154;8.682;2023-03-14T08:54:15;0.80;;;0.80;;
65567;SDS011;52211;50.154;8.682;2023-03-14T08:56:43;2.20;;;0.90;;
65567;SDS011;52211;50.154;8.682;2023-03-14T08:59:10;0.70;;;0.70;;
65567;SDS011;52211;50.154;8.682;2023-03-14T09:01:41;1.27;;;0.90;;
65567;SDS011;52211;50.154;8.682;2023-03-14T09:04:08;2.27;;;0.90;;
65567;SDS011;52211;50.154;8.682;2023-03-14T09:06:41;1.80;;;1.27;;
65567;SDS011;52211;50.154;8.682;2023-03-14T09:09:12;1.60;;;1.30;;
65567;SDS011;52211;50.154;8.682;2023-03-14T09:11:40;1.50;;;0.90;;
65567;SDS011;52211;50.154;8.682;2023-03-14T09:14:07;1.23;;;0.90;;
65567;SDS011;52211;50.154;8.682;2023-03-14T09:16:34;1.13;;;1.03;;
65567;SDS011;52211;50.154;8.682;2023-03-14T09:19:03;0.83;;;0.80;;
65567;SDS011;52211;50.154;8.682;2023-03-14T09:21:30;0.60;;;0.53;;
65567;SDS011;52211;50.154;8.682;2023-03-14T09:23:57;1.63;;;0.90;;
65567;SDS011;52211;50.154;8.682;2023-03-14T09:26:26;0.80;;;0.80;;
65567;SDS011;52211;50.154;8.682;2023-03-14T09:28:58;0.70;;;0.70;;
65567;SDS011;52211;50.154;8.682;2023-03-14T09:31:27;1.10;;;0.70;;
65567;SDS011;52211;50.154;8.682;2023-03-14T09:33:56;1.00;;;0.80;;
65567;SDS011;52211;50.154;8.682;2023-03-14T09:36:26;0.80;;;0.80;;
65567;SDS011;52211;50.154;8.682;2023-03-14T09:38:57;1.10;;;0.80;;
65567;SDS011;52211;50.154;8.682;2023-03-14T09:41:25;0.80;;;0.80;;
65567;SDS011;52211;50.154;8.682;2023-03-14T09:44:11;3.40;;;0.70;;
65567;SDS011;52211;50.154;8.682;2023-03-14T09:46:43;0.73;;;0.60;;
65567;SDS011;52211;50.154;8.682;2023-03-14T09:49:21;1.00;;;0.90;;
65567;SDS011;52211;50.154;8.682;2023-03-14T09:55:03;1.27;;;0.70;;
65567;SDS011;52211;50.154;8.682;2023-03-14T09:57:41;2.07;;;0.87;;
65567;SDS011;52211;50.154;8.682;2023-03-14T10:00:16;0.80;;;0.80;;
65567;SDS011;52211;50.154;8.682;2023-03-14T10:05:39;0.73;;;0.73;;
65567;SDS011;52211;50.154;8.682;2023-03-14T10:08:09;1.07;;;0.80;;
65567;SDS011;52211;50.154;8.682;2023-03-14T10:10:38;0.87;;;0.77;;
65567;SDS011;52211;50.154;8.682;2023-03-14T10:13:16;0.80;;;0.77;;
65567;SDS011;52211;50.154;8.682;2023-03-14T10:15:52;1.00;;;0.90;;
65567;SDS011;52211;50.154;8.682;2023-03-14T10:18:30;0.80;;;0.70;;
65567;SDS011;52211;50.154;8.682;2023-03-14T10:21:06;0.80;;;0.80;;
65567;SDS011;52211;50.154;8.682;2023-03-14T10:23:54;1.10;;;0.93;;
65567;SDS011;52211;50.154;8.682;2023-03-14T10:27:06;0.80;;;0.80;;
65567;SDS011;52211;50.154;8.682;2023-03-14T10:29:58;1.00;;;0.73;;
65567;SDS011;52211;50.154;8.682;2023-03-14T10:32:35;0.73;;;0.60;;
65567;SDS011;52211;50.154;8.682;2023-03-14T10:37:56;0.73;;;0.73;;
65567;SDS011;52211;50.154;8.682;2023-03-14T10:40:31;1.10;;;1.00;;
65567;SDS011;52211;50.154;8.682;2023-03-14T10:43:16;1.60;;;1.00;;
65567;SDS011;52211;50.154;8.682;2023-03-14T10:46:16;0.90;;;0.90;;
65567;SDS011;52211;50.154;8.682;2023-03-14T10:49:16;0.90;;;0.90;;
65567;SDS011;52211;50.154;8.682;2023-03-14T10:52:19;0.80;;;0.80;;
65567;SDS011;52211;50.154;8.682;2023-03-14T10:55:12;1.50;;;0.90;;
65567;SDS011;52211;50.154;8.682;2023-03-14T10:57:42;0.73;;;0.73;;
65567;SDS011;52211;50.154;8.682;2023-03-14T11:08:24;0.70;;;0.70;;
65567;SDS011;52211;50.154;8.682;2023-03-14T11:11:14;2.30;;;1.53;;
65567;SDS011;52211;50.154;8.682;2023-03-14T11:13:59;2.90;;;1.00;;
65567;SDS011;52211;50.154;8.682;2023-03-14T11:19:42;0.83;;;0.83;;
65567;SDS011;52211;50.154;8.682;2023-03-14T11:22:21;1.03;;;1.00;;
65567;SDS011;52211;50.154;8.682;2023-03-14T11:25:18;0.93;;;0.93;;
65567;SDS011;52211;50.154;8.682;2023-03-14T11:30:54;0.97;;;0.97;;
65567;SDS011;52211;50.154;8.682;2023-03-14T11:36:39;2.43;;;0.90;;
65567;SDS011;52211;50.154;8.682;2023-03-14T11:39:38;1.17;;;1.07;;
65567;SDS011;52211;50.154;8.682;2023-03-14T11:42:11;1.20;;;1.10;;
65567;SDS011;52211;50.154;8.682;2023-03-14T11:44:46;0.80;;;0.80;;
65567;SDS011;52211;50.154;8.682;2023-03-14T11:47:20;1.53;;;1.03;;
65567;SDS011;52211;50.154;8.682;2023-03-14T11:52:51;2.40;;;0.97;;
65567;SDS011;52211;50.154;8.682;2023-03-14T11:55:36;1.10;;;1.10;;
65567;SDS011;52211;50.154;8.682;2023-03-14T12:00:54;1.10;;;1.10;;
65567;SDS011;52211;50.154;8.682;2023-03-14T12:06:35;1.80;;;1.43;;
65567;SDS011;52211;50.154;8.682;2023-03-14T12:09:18;1.63;;;1.50;;
65567;SDS011;52211;50.154;8.682;2023-03-14T12:11:50;1.57;;;1.47;;
65567;SDS011;52211;50.154;8.682;2023-03-14T12:17:05;0.60;;;0.60;;
65567;SDS011;52211;50.154;8.682;2023-03-14T12:22:42;0.60;;;0.50;;
65567;SDS011;52211;50.154;8.682;2023-03-14T12:30:51;0.30;;;0.30;;
65567;SDS011;52211;50.154;8.682;2023-03-14T12:33:26;0.30;;;0.30;;
65567;SDS011;52211;50.154;8.682;2023-03-14T12:36:03;0.60;;;0.60;;
65567;SDS011;52211;50.154;8.682;2023-03-14T12:38:41;0.50;;;0.50;;
65567;SDS011;52211;50.154;8.682;2023-03-14T12:41:44;0.60;;;0.60;;
65567;SDS011;52211;50.154;8.682;2023-03-14T12:46:57;0.57;;;0.57;;
65567;SDS011;52211;50.154;8.682;2023-03-14T12:49:48;0.63;;;0.63;;
65567;SDS011;52211;50.154;8.682;2023-03-14T12:52:45;0.80;;;0.50;;
65567;SDS011;52211;50.154;8.682;2023-03-14T12:55:46;0.50;;;0.50;;
65567;SDS011;52211;50.154;8.682;2023-03-14T12:58:29;0.60;;;0.60;;
65567;SDS011;52211;50.154;8.682;2023-03-14T13:01:05;0.50;;;0.50;;
65567;SDS011;52211;50.154;8.682;2023-03-14T13:12:08;0.70;;;0.70;;
65567;SDS011;52211;50.154;8.682;2023-03-14T13:14:44;0.63;;;0.60;;
65567;SDS011;52211;50.154;8.682;2023-03-14T13:17:25;0.70;;;0.70;;
65567;SDS011;52211;50.154;8.682;2023-03-14T13:20:10;0.80;;;0.80;;
65567;SDS011;52211;50.154;8.682;2023-03-14T13:22:47;0.80;;;0.80;;
65567;SDS011;52211;50.154;8.682;2023-03-14T13:25:16;1.40;;;1.00;;
65567;SDS011;52211;50.154;8.682;2023-03-14T13:27:44;0.90;;;0.90;;
65567;SDS011;52211;50.154;8.682;2023-03-14T13:30:16;1.00;;;0.90;;
65567;SDS011;52211;50.154;8.682;2023-03-14T13:32:55;0.90;;;0.90;;
65567;SDS011;52211;50.154;8.682;2023-03-14T13:37:59;0.83;;;0.83;;
65567;SDS011;52211;50.154;8.682;2023-03-14T13:40:37;1.00;;;1.00;;
65567;SDS011;52211;50.154;8.682;2023-03-14T13:43:14;0.90;;;0.90;;
65567;SDS011;52211;50.154;8.682;2023-03-14T13:48:26;1.70;;;0.80;;
65567;SDS011;52211;50.154;8.682;2023-03-14T13:51:03;0.80;;;0.80;;
65567;SDS011;52211;50.154;8.682;2023-03-14T13:53:51;0.70;;;0.70;;
65567;SDS011;52211;50.154;8.682;2023-03-14T13:56:25;0.80;;;0.77;;
65567;SDS011;52211;50.154;8.682;2023-03-14T13:58:55;0.90;;;0.90;;
65567;SDS011;52211;50.154;8.682;2023-03-14T14:04:08;0.50;;;0.50;;
65567;SDS011;52211;50.154;8.682;2023-03-14T14:06:46;1.10;;;0.40;;
65567;SDS011;52211;50.154;8.682;2023-03-14T14:09:24;0.57;;;0.57;;
65567;SDS011;52211;50.154;8.682;2023-03-14T14:12:03;0.60;;;0.60;;
65567;SDS011;52211;50.154;8.682;2023-03-14T14:17:29;0.90;;;0.80;;
65567;SDS011;52211;50.154;8.682;2023-03-14T14:20:03;0.60;;;0.60;;
65567;SDS011;52211;50.154;8.682;2023-03-14T14:22:37;0.50;;;0.50;;
65567;SDS011;52211;50.154;8.682;2023-03-14T14:25:05;0.80;;;0.70;;
65567;SDS011;52211;50.154;8.682;2023-03-14T14:27:42;0.50;;;0.50;;
65567;SDS011;52211;50.154;8.682;2023-03-14T14:32:43;0.60;;;0.60;;
65567;SDS011;52211;50.154;8.682;2023-03-14T14:37:58;0.57;;;0.57;;
65567;SDS011;52211;50.154;8.682;2023-03-14T14:40:30;0.60;;;0.60;;
65567;SDS011;52211;50.154;8.682;2023-03-14T14:43:05;0.67;;;0.60;;
65567;SDS011;52211;50.154;8.682;2023-03-14T14:45:34;0.50;;;0.50;;
65567;SDS011;52211;50.154;8.682;2023-03-14T14:48:09;0.50;;;0.50;;
65567;SDS011;52211;50.154;8.682;2023-03-14T14:53:41;0.50;;;0.50;;
65567;SDS011;52211;50.154;8.682;2023-03-14T14:58:58;0.80;;;0.80;;
65567;SDS011;52211;50.154;8.682;2023-03-14T15:01:36;0.70;;;0.70;;
65567;SDS011;52211;50.154;8.682;2023-03-14T15:04:11;0.63;;;0.63;;
65567;SDS011;52211;50.154;8.682;2023-03-14T15:06:46;0.70;;;0.70;;
65567;SDS011;52211;50.154;8.682;2023-03-14T15:09:16;0.60;;;0.50;;
65567;SDS011;52211;50.154;8.682;2023-03-14T15:11:48;0.60;;;0.60;;
65567;SDS011;52211;50.154;8.682;2023-03-14T15:14:16;1.47;;;0.57;;
65567;SDS011;52211;50.154;8.682;2023-03-14T15:16:45;0.80;;;0.57;;
65567;SDS011;52211;50.154;8.682;2023-03-14T15:19:30;1.47;;;0.63;;
65567;SDS011;52211;50.154;8.682;2023-03-14T15:22:02;0.70;;;0.70;;
65567;SDS011;52211;50.154;8.682;2023-03-14T15:24:37;0.80;;;0.80;;
65567;SDS011;52211;50.154;8.682;2023-03-14T15:27:10;0.73;;;0.73;;
65567;SDS011;52211;50.154;8.682;2023-03-14T15:29:41;1.10;;;0.90;;
65567;SDS011;52211;50.154;8.682;2023-03-14T15:32:11;0.70;;;0.70;;
65567;SDS011;52211;50.154;8.682;2023-03-14T15:34:42;1.07;;;0.87;;
65567;SDS011;52211;50.154;8.682;2023-03-14T15:37:12;0.70;;;0.70;;
65567;SDS011;52211;50.154;8.682;2023-03-14T15:39:48;1.03;;;0.80;;
65567;SDS011;52211;50.154;8.682;2023-03-14T15:42:15;0.80;;;0.60;;
65567;SDS011;52211;50.154;8.682;2023-03-14T15:44:42;1.53;;;0.80;;
65567;SDS011;52211;50.154;8.682;2023-03-14T15:47:13;2.13;;;1.03;;
65567;SDS011;52211;50.154;8.682;2023-03-14T15:49:43;0.70;;;0.70;;
65567;SDS011;52211;50.154;8.682;2023-03-14T15:52:13;0.60;;;0.60;;
65567;SDS011;52211;50.154;8.682;2023-03-14T15:54:40;0.83;;;0.83;;
65567;SDS011;52211;50.154;8.682;2023-03-14T15:57:11;1.00;;;0.57;;
65567;SDS011;52211;50.154;8.682;2023-03-14T15:59:43;0.57;;;0.57;;
65567;SDS011;52211;50.154;8.682;2023-03-14T16:02:12;0.63;;;0.50;;
65567;SDS011;52211;50.154;8.682;2023-03-14T16:04:41;0.57;;;0.57;;
65567;SDS011;52211;50.154;8.682;2023-03-14T16:07:13;0.50;;;0.50;;
65567;SDS011;52211;50.154;8.682;2023-03-14T16:09:42;0.83;;;0.73;;
65567;SDS011;52211;50.154;8.682;2023-03-14T16:12:09;0.80;;;0.80;;
65567;SDS011;52211;50.154;8.682;2023-03-14T16:14:40;0.50;;;0.50;;
65567;SDS011;52211;50.154;8.682;2023-03-14T16:17:08;1.60;;;0.60;;
65567;SDS011;52211;50.154;8.682;2023-03-14T16:19:38;0.47;;;0.47;;
65567;SDS011;52211;50.154;8.682;2023-03-14T16:22:08;1.20;;;0.70;;
65567;SDS011;52211;50.154;8.682;2023-03-14T16:24:38;0.60;;;0.60;;
65567;SDS011;52211;50.154;8.682;2023-03-14T16:27:07;0.60;;;0.60;;
65567;SDS011;52211;50.154;8.682;2023-03-14T16:29:37;0.80;;;0.80;;
65567;SDS011;52211;50.154;8.682;2023-03-14T16:32:09;1.37;;;0.60;;
65567;SDS011;52211;50.154;8.682;2023-03-14T16:34:39;0.63;;;0.63;;
65567;SDS011;52211;50.154;8.682;2023-03-14T16:37:06;0.50;;;0.50;;
65567;SDS011;52211;50.154;8.682;2023-03-14T16:39:35;1.23;;;0.53;;
65567;SDS011;52211;50.154;8.682;2023-03-14T16:42:27;0.60;;;0.60;;
65567;SDS011;52211;50.154;8.682;2023-03-14T16:44:59;0.60;;;0.60;;
65567;SDS011;52211;50.154;8.682;2023-03-14T16:47:26;0.73;;;0.70;;
65567;SDS011;52211;50.154;8.682;2023-03-14T16:49:55;0.60;;;0.60;;
65567;SDS011;52211;50.154;8.682;2023-03-14T16:52:22;0.70;;;0.70;;
65567;SDS011;52211;50.154;8.682;2023-03-14T16:54:50;0.63;;;0.63;;
65567;SDS011;52211;50.154;8.682;2023-03-14T16:57:22;1.00;;;1.00;;